Time;durP1;ratioP1;P1;durP2;ratioP2;P2;SDS_P1;SDS_P2;PMS_P1;PMS_P2;Temp;Humidity;BMP_temperature;BMP_pressure;BME280_temperature;BME280_humidity;BME280_pressure;Samples;Min_cycle;Max_cycle;Signal;HPM_P1;HPM_P2
2022/08/30 00:01:05;;;;;;;0.40;0.40;;;12.80;99.90;;;;;;5086618;28;20048;-81
2022/08/30 00:03:37;;;;;;;0.50;0.50;;;12.80;99.90;;;;;;5086139;28;20120;-80
2022/08/30 00:06:05;;;;;;;0.30;0.30;;;12.80;99.90;;;;;;5087022;28;20044;-82
2022/08/30 00:08:32;;;;;;;0.30;0.30;;;12.70;99.90;;;;;;5087209;28;20048;-81
2022/08/30 00:10:58;;;;;;;0.22;0.22;;;12.70;99.90;;;;;;5088509;28;20306;-81
2022/08/30 00:13:24;;;;;;;;;;;12.70;99.90;;;;;;5068599;28;20059;-82
2022/08/30 00:15:50;;;;;;;0.40;0.40;;;12.70;99.90;;;;;;5079519;28;19916;-81
2022/08/30 00:18:17;;;;;;;0.32;0.32;;;12.70;99.90;;;;;;5071839;28;20378;-80
2022/08/30 00:20:45;;;;;;;0.35;0.35;;;12.70;99.90;;;;;;5072130;28;20147;-81
2022/08/30 00:23:11;;;;;;;0.20;0.20;;;12.70;99.90;;;;;;5075455;28;20042;-80
2022/08/30 00:25:37;;;;;;;0.38;0.38;;;12.70;99.90;;;;;;5057075;28;20478;-81
2022/08/30 00:28:03;;;;;;;0.30;0.30;;;12.60;99.90;;;;;;5079694;28;20119;-80
2022/08/30 00:30:30;;;;;;;0.35;0.35;;;12.60;99.90;;;;;;5086944;28;20131;-80
2022/08/30 00:32:56;;;;;;;0.30;0.30;;;12.60;99.90;;;;;;5084913;28;20036;-80
2022/08/30 00:35:22;;;;;;;;;;;12.50;99.90;;;;;;5082569;28;20048;-81
2022/08/30 00:37:49;;;;;;;0.30;0.30;;;12.40;99.90;;;;;;5073334;28;20364;-81
2022/08/30 00:40:18;;;;;;;0.40;0.40;;;12.40;99.90;;;;;;5066127;28;20378;-82
2022/08/30 00:42:44;;;;;;;0.30;0.30;;;12.30;99.90;;;;;;5093227;28;20067;-83
2022/08/30 00:45:16;;;;;;;0.30;0.30;;;12.30;99.90;;;;;;5086700;28;20043;-80
2022/08/30 00:47:42;;;;;;;0.40;0.40;;;12.20;99.90;;;;;;5070401;28;20097;-82
2022/08/30 00:50:09;;;;;;;0.40;0.40;;;12.20;99.90;;;;;;5061857;28;20036;-82
2022/08/30 00:52:43;;;;;;;0.32;0.32;;;12.20;99.90;;;;;;5060214;28;20041;-80
2022/08/30 00:55:12;;;;;;;0.40;0.40;;;12.20;99.90;;;;;;5067786;28;20482;-82
2022/08/30 00:57:38;;;;;;;0.43;0.43;;;12.10;99.90;;;;;;5087646;28;20052;-80
2022/08/30 01:00:05;;;;;;;0.40;0.40;;;12.10;99.90;;;;;;5065443;28;20143;-81
2022/08/30 01:02:32;;;;;;;0.30;0.30;;;12.10;99.90;;;;;;5065055;28;20118;-82
2022/08/30 01:05:00;;;;;;;0.30;0.30;;;12.10;99.90;;;;;;5089715;28;20501;-81
2022/08/30 01:07:26;;;;;;;0.50;0.50;;;12.10;99.90;;;;;;5091664;28;20572;-81
2022/08/30 01:09:52;;;;;;;0.40;0.40;;;12.10;99.90;;;;;;5085644;28;20389;-79
2022/08/30 01:12:17;;;;;;;0.30;0.30;;;12.00;99.90;;;;;;5060756;28;20135;-77
2022/08/30 01:14:44;;;;;;;0.20;0.20;;;12.00;99.90;;;;;;5064708;28;20040;-80
2022/08/30 01:17:10;;;;;;;0.40;0.40;;;12.00;99.90;;;;;;5079196;28;20047;-80
2022/08/30 01:20:03;;;;;;;0.35;0.35;;;12.00;99.90;;;;;;5079774;28;20373;-81
2022/08/30 01:22:39;;;;;;;0.30;0.30;;;12.00;99.90;;;;;;5063550;28;20040;-82
2022/08/30 01:25:08;;;;;;;0.30;0.30;;;12.10;99.90;;;;;;5075429;28;20047;-81
2022/08/30 01:27:37;;;;;;;0.43;0.43;;;12.10;99.90;;;;;;5086435;28;20488;-81
2022/08/30 01:30:06;;;;;;;0.28;0.28;;;12.10;99.90;;;;;;5085375;28;20048;-80
2022/08/30 01:32:38;;;;;;;0.40;0.40;;;12.10;99.90;;;;;;5065021;28;20050;-80
2022/08/30 01:35:08;;;;;;;0.40;0.40;;;12.10;99.90;;;;;;5090589;28;20110;-81
2022/08/30 01:37:36;;;;;;;0.52;0.52;;;12.20;99.90;;;;;;5076339;28;20115;-81
2022/08/30 01:40:02;;;;;;;0.40;0.40;;;12.20;99.90;;;;;;5094106;28;20123;-83
2022/08/30 01:42:28;;;;;;;0.30;0.30;;;12.30;99.90;;;;;;5082050;28;20044;-81
2022/08/30 01:44:54;;;;;;;0.50;0.50;;;12.30;99.90;;;;;;5078721;28;20059;-80
2022/08/30 01:47:20;;;;;;;0.20;0.20;;;12.40;99.90;;;;;;5091269;28;20044;-82
2022/08/30 01:49:47;;;;;;;0.35;0.35;;;12.40;99.90;;;;;;5040118;28;20068;-81
2022/08/30 01:52:13;;;;;;;0.20;0.20;;;12.40;99.90;;;;;;5072569;28;20505;-80
2022/08/30 01:54:43;;;;;;;0.40;0.40;;;12.40;99.90;;;;;;5102333;28;20042;-81
2022/08/30 01:57:11;;;;;;;0.40;0.40;;;12.50;99.90;;;;;;5108012;28;20088;-80
2022/08/30 01:59:38;;;;;;;0.30;0.30;;;12.50;99.90;;;;;;5090960;27;20048;-81
2022/08/30 02:02:04;;;;;;;0.40;0.40;;;12.50;99.90;;;;;;5075102;28;20056;-82
2022/08/30 02:04:32;;;;;;;0.30;0.30;;;12.60;99.90;;;;;;5092860;28;20040;-82
2022/08/30 02:07:00;;;;;;;0.30;0.30;;;12.60;99.90;;;;;;5089380;28;20486;-80
2022/08/30 02:09:26;;;;;;;0.40;0.40;;;12.60;99.90;;;;;;5085828;28;20169;-80
2022/08/30 02:11:52;;;;;;;0.35;0.35;;;12.60;99.90;;;;;;5078816;28;20369;-80
2022/08/30 02:14:18;;;;;;;0.38;0.38;;;12.60;99.90;;;;;;5092159;28;20181;-80
2022/08/30 02:16:43;;;;;;;0.30;0.30;;;12.70;99.90;;;;;;5086877;28;20068;-79
2022/08/30 02:19:10;;;;;;;0.30;0.30;;;12.70;99.90;;;;;;5094589;28;20048;-80
2022/08/30 02:21:36;;;;;;;0.40;0.40;;;12.70;99.90;;;;;;5089372;28;20123;-80
2022/08/30 02:24:02;;;;;;;0.50;0.50;;;12.70;99.90;;;;;;5084774;28;20233;-81
2022/08/30 02:26:27;;;;;;;0.30;0.30;;;12.70;99.90;;;;;;5071687;28;20033;-80
2022/08/30 02:28:53;;;;;;;0.40;0.40;;;12.70;99.90;;;;;;5096394;28;20062;-81
2022/08/30 02:31:20;;;;;;;0.40;0.40;;;12.70;99.90;;;;;;5086972;28;20044;-81
2022/08/30 02:33:47;;;;;;;0.40;0.40;;;12.70;99.90;;;;;;5087720;28;20032;-80
2022/08/30 02:36:13;;;;;;;0.38;0.38;;;12.70;99.90;;;;;;5048417;28;20048;-79
2022/08/30 02:38:39;;;;;;;0.40;0.40;;;12.70;99.90;;;;;;5084174;28;20107;-79
2022/08/30 02:41:04;;;;;;;0.30;0.30;;;12.70;99.90;;;;;;5071739;28;20569;-79
2022/08/30 02:43:30;;;;;;;0.30;0.30;;;12.70;99.90;;;;;;5077583;28;20119;-78
2022/08/30 02:46:02;;;;;;;0.30;0.30;;;12.70;99.90;;;;;;5076464;28;20051;-79
2022/08/30 02:48:29;;;;;;;0.50;0.50;;;12.60;99.90;;;;;;5082401;28;20044;-78
2022/08/30 02:50:55;;;;;;;0.40;0.40;;;12.60;99.90;;;;;;5084023;28;20040;-79
2022/08/30 02:53:22;;;;;;;0.30;0.30;;;12.60;99.90;;;;;;5079852;28;20089;-81
2022/08/30 02:55:55;;;;;;;0.40;0.40;;;12.60;99.90;;;;;;5058605;28;20362;-80
2022/08/30 02:58:20;;;;;;;0.40;0.40;;;12.60;99.90;;;;;;5087224;28;20043;-83
2022/08/30 03:00:46;;;;;;;0.40;0.40;;;12.60;99.90;;;;;;5086984;28;20063;-83
2022/08/30 03:03:12;;;;;;;0.20;0.20;;;12.50;99.90;;;;;;5081762;28;20489;-81
2022/08/30 03:05:38;;;;;;;0.50;0.50;;;12.50;99.90;;;;;;5070769;28;20075;-83
2022/08/30 03:08:10;;;;;;;0.30;0.30;;;12.50;99.90;;;;;;5088712;28;20543;-80
2022/08/30 03:10:41;;;;;;;0.40;0.40;;;12.50;99.90;;;;;;5091832;28;20044;-82
2022/08/30 03:13:09;;;;;;;0.30;0.30;;;12.50;99.90;;;;;;5078724;28;20032;-81
2022/08/30 03:15:38;;;;;;;0.30;0.30;;;12.50;99.90;;;;;;5054612;28;20067;-82
2022/08/30 03:18:12;;;;;;;0.40;0.40;;;12.50;99.90;;;;;;5087929;28;20042;-80
2022/08/30 03:20:41;;;;;;;0.43;0.43;;;12.50;99.90;;;;;;5099944;28;20043;-80
2022/08/30 03:23:07;;;;;;;0.40;0.40;;;12.50;99.90;;;;;;5091668;28;20125;-80
2022/08/30 03:25:33;;;;;;;0.50;0.50;;;12.50;99.90;;;;;;5088148;28;20588;-82
2022/08/30 03:27:58;;;;;;;0.57;0.57;;;12.40;99.90;;;;;;5069854;28;20127;-82
2022/08/30 03:30:24;;;;;;;0.73;0.73;;;12.40;99.90;;;;;;5062322;28;20132;-84
2022/08/30 03:32:50;;;;;;;0.43;0.43;;;12.40;99.90;;;;;;5091350;28;20095;-84
2022/08/30 03:35:17;;;;;;;0.52;0.52;;;12.40;99.90;;;;;;5087839;28;20048;-83
2022/08/30 03:37:43;;;;;;;0.47;0.47;;;12.40;99.90;;;;;;5053857;28;20044;-81
2022/08/30 03:40:10;;;;;;;0.65;0.65;;;12.40;99.90;;;;;;5081712;28;20093;-82
2022/08/30 03:42:37;;;;;;;0.43;0.43;;;12.40;99.90;;;;;;5060999;28;20121;-80
2022/08/30 03:45:10;;;;;;;0.40;0.40;;;12.30;99.90;;;;;;5088674;28;20055;-82
2022/08/30 03:47:42;;;;;;;0.60;0.55;;;12.30;99.90;;;;;;5083749;28;20129;-79
2022/08/30 03:50:09;;;;;;;0.32;0.32;;;12.20;99.90;;;;;;5086273;28;20047;-79
2022/08/30 03:52:39;;;;;;;0.32;0.32;;;12.20;99.90;;;;;;5081018;28;20402;-81
2022/08/30 03:55:05;;;;;;;0.30;0.30;;;12.20;99.90;;;;;;5091547;28;20062;-80
2022/08/30 03:57:32;;;;;;;0.30;0.30;;;12.10;99.90;;;;;;5094135;28;20485;-82
2022/08/30 03:59:58;;;;;;;0.32;0.32;;;12.00;99.90;;;;;;5086551;28;20044;-81
2022/08/30 04:02:26;;;;;;;;;;;12.00;99.90;;;;;;5090577;28;20059;-81
2022/08/30 04:04:54;;;;;;;0.43;0.43;;;11.90;99.90;;;;;;5088618;28;19916;-79
2022/08/30 04:07:20;;;;;;;0.50;0.50;;;11.80;99.90;;;;;;5075865;28;20046;-82
2022/08/30 04:09:46;;;;;;;0.40;0.40;;;11.80;99.90;;;;;;5078406;28;20059;-81
2022/08/30 04:12:11;;;;;;;0.40;0.40;;;11.70;99.90;;;;;;5081415;28;20075;-82
2022/08/30 04:14:43;;;;;;;0.70;0.70;;;11.60;99.90;;;;;;5078547;28;20050;-81
2022/08/30 04:17:09;;;;;;;0.40;0.40;;;11.60;99.90;;;;;;5077553;28;20068;-82
2022/08/30 04:19:34;;;;;;;0.40;0.40;;;11.50;99.90;;;;;;5083105;28;20166;-82
2022/08/30 04:22:00;;;;;;;0.40;0.40;;;11.50;99.90;;;;;;5078756;28;20056;-81
2022/08/30 04:24:27;;;;;;;0.35;0.35;;;11.40;99.90;;;;;;5047062;28;20028;-81
2022/08/30 04:26:53;;;;;;;0.80;0.80;;;11.40;99.90;;;;;;5067079;28;20136;-80
2022/08/30 04:29:18;;;;;;;0.40;0.40;;;11.40;99.90;;;;;;5076536;28;20092;-81
2022/08/30 04:31:45;;;;;;;0.30;0.30;;;11.40;99.90;;;;;;5072717;28;20116;-82
2022/08/30 04:34:13;;;;;;;0.30;0.30;;;11.40;99.90;;;;;;5070048;28;20481;-81
2022/08/30 04:36:39;;;;;;;0.40;0.40;;;11.30;99.90;;;;;;5089768;28;20047;-80
2022/08/30 04:39:05;;;;;;;4.32;0.55;;;11.30;99.90;;;;;;5086215;28;20043;-82
2022/08/30 04:41:31;;;;;;;0.30;0.30;;;11.30;99.90;;;;;;5070706;28;20488;-81
2022/08/30 04:44:03;;;;;;;0.40;0.40;;;11.20;99.90;;;;;;5083797;28;20055;-81
2022/08/30 04:46:29;;;;;;;0.50;0.50;;;11.20;99.90;;;;;;5089844;28;20409;-81
2022/08/30 04:48:56;;;;;;;0.40;0.40;;;11.20;99.90;;;;;;5088440;28;20043;-81
2022/08/30 04:51:22;;;;;;;0.40;0.40;;;11.20;99.90;;;;;;5083968;28;20041;-81
2022/08/30 04:53:48;;;;;;;0.30;0.30;;;11.10;99.90;;;;;;5088145;28;20048;-79
2022/08/30 04:56:17;;;;;;;0.40;0.40;;;11.10;99.90;;;;;;5090553;28;20469;-82
2022/08/30 04:58:43;;;;;;;0.30;0.30;;;11.10;99.90;;;;;;5080496;28;20060;-81
2022/08/30 05:01:16;;;;;;;0.40;0.40;;;11.00;99.90;;;;;;5089614;28;20071;-81
2022/08/30 05:03:48;;;;;;;0.40;0.40;;;11.00;99.90;;;;;;5088797;28;20055;-80
2022/08/30 05:06:14;;;;;;;0.40;0.40;;;11.00;99.90;;;;;;5071079;28;20044;-81
2022/08/30 05:08:40;;;;;;;0.40;0.40;;;11.00;99.90;;;;;;5094565;28;20510;-82
2022/08/30 05:11:08;;;;;;;0.40;0.40;;;11.00;99.90;;;;;;5085368;28;20075;-81
2022/08/30 05:13:35;;;;;;;0.50;0.50;;;11.10;99.90;;;;;;5086571;28;20105;-81
2022/08/30 05:16:03;;;;;;;0.40;0.40;;;11.00;99.90;;;;;;5086556;28;20028;-81
2022/08/30 05:18:32;;;;;;;0.43;0.43;;;11.00;99.90;;;;;;5089277;28;20136;-82
2022/08/30 05:21:16;;;;;;;0.30;0.30;;;10.90;99.90;;;;;;5078410;28;20546;-82
2022/08/30 05:23:42;;;;;;;0.40;0.40;;;10.90;99.90;;;;;;5082206;28;20040;-83
2022/08/30 05:26:10;;;;;;;;;;;10.90;99.90;;;;;;5085986;28;20076;-82
2022/08/30 05:28:36;;;;;;;0.35;0.35;;;10.80;99.90;;;;;;5090870;28;19927;-82
2022/08/30 05:31:02;;;;;;;0.50;0.50;;;10.90;99.90;;;;;;5103888;28;20048;-82
2022/08/30 05:33:29;;;;;;;0.50;0.50;;;10.90;99.90;;;;;;5099213;28;20477;-82
2022/08/30 05:35:54;;;;;;;0.50;0.50;;;11.00;99.90;;;;;;5088480;28;20039;-82
2022/08/30 05:38:20;;;;;;;0.30;0.30;;;11.10;99.90;;;;;;5075110;28;20449;-84
2022/08/30 05:40:46;;;;;;;0.45;0.45;;;11.20;99.90;;;;;;5087167;28;20086;-82
2022/08/30 05:43:13;;;;;;;0.40;0.40;;;11.30;99.90;;;;;;5067516;28;20042;-82
2022/08/30 05:45:38;;;;;;;0.40;0.40;;;11.30;99.90;;;;;;5083118;28;20086;-82
2022/08/30 05:48:04;;;;;;;0.40;0.40;;;11.40;99.90;;;;;;5093194;28;20472;-82
2022/08/30 05:50:33;;;;;;;0.40;0.40;;;11.60;99.90;;;;;;5105439;28;20048;-82
2022/08/30 05:53:03;;;;;;;0.30;0.30;;;11.80;99.90;;;;;;5103907;28;20123;-83
2022/08/30 05:55:29;;;;;;;0.50;0.50;;;12.00;99.90;;;;;;5054849;28;20104;-82
2022/08/30 05:57:55;;;;;;;0.43;0.43;;;12.20;99.90;;;;;;5104421;28;20081;-82
2022/08/30 06:00:22;;;;;;;0.47;0.47;;;12.20;99.90;;;;;;5095169;28;20056;-83
2022/08/30 06:02:53;;;;;;;0.40;0.40;;;12.30;99.90;;;;;;5096679;28;20111;-82
2022/08/30 06:05:20;;;;;;;0.40;0.40;;;12.30;99.90;;;;;;5081146;28;20052;-82
2022/08/30 06:07:45;;;;;;;0.32;0.32;;;12.40;99.90;;;;;;5065929;28;20040;-81
2022/08/30 06:10:11;;;;;;;0.50;0.50;;;12.50;99.90;;;;;;5095166;28;20093;-80
2022/08/30 06:12:36;;;;;;;0.40;0.40;;;12.70;99.90;;;;;;5070538;28;20041;-82
2022/08/30 06:15:03;;;;;;;;;;;12.90;99.90;;;;;;5082179;28;20062;-82
2022/08/30 06:17:29;;;;;;;0.35;0.35;;;13.10;99.90;;;;;;5089462;28;19919;-82
2022/08/30 06:19:56;;;;;;;0.40;0.40;;;13.30;99.90;;;;;;5087316;28;20482;-82
2022/08/30 06:22:22;;;;;;;0.30;0.30;;;13.40;99.90;;;;;;5085839;28;20381;-81
2022/08/30 06:24:51;;;;;;;0.40;0.40;;;13.60;99.90;;;;;;5083422;28;20036;-81
2022/08/30 06:27:25;;;;;;;0.40;0.40;;;13.90;99.90;;;;;;5088772;28;20121;-81
2022/08/30 06:29:52;;;;;;;0.60;0.60;;;14.00;99.90;;;;;;5084345;28;20090;-83
2022/08/30 06:32:18;;;;;;;0.40;0.40;;;14.20;99.90;;;;;;5071213;28;20332;-82
2022/08/30 06:34:43;;;;;;;0.30;0.30;;;14.30;99.90;;;;;;5081018;28;20059;-81
2022/08/30 06:37:09;;;;;;;0.40;0.40;;;14.50;99.90;;;;;;5088059;28;20040;-81
2022/08/30 06:39:35;;;;;;;0.52;0.52;;;14.70;99.90;;;;;;5086991;28;20051;-82
2022/08/30 06:42:01;;;;;;;;;;;14.90;99.90;;;;;;5096866;28;20051;-81
2022/08/30 06:44:26;;;;;;;0.35;0.35;;;15.00;99.90;;;;;;5085029;28;19939;-80
2022/08/30 06:46:52;;;;;;;0.28;0.28;;;15.20;99.90;;;;;;5068681;28;20370;-80
2022/08/30 06:49:20;;;;;;;;;;;15.30;99.90;;;;;;5066625;28;20060;-83
2022/08/30 06:51:47;;;;;;;;;;;15.40;99.90;;;;;;5070908;28;20382;-81
2022/08/30 06:54:12;;;;;;;0.40;0.40;;;15.50;99.90;;;;;;5083874;28;19943;-80
2022/08/30 06:56:39;;;;;;;;;;;15.70;99.90;;;;;;5091863;28;20051;-81
2022/08/30 06:59:05;;;;;;;0.85;0.85;;;15.80;99.90;;;;;;5084303;28;20125;-82
2022/08/30 07:01:30;;;;;;;;;;;16.00;99.90;;;;;;5088242;28;20043;-81
2022/08/30 07:03:57;;;;;;;0.28;0.28;;;16.10;99.90;;;;;;5065165;28;19917;-80
2022/08/30 07:06:24;;;;;;;0.40;0.40;;;16.30;99.90;;;;;;5089570;28;20389;-81
2022/08/30 07:08:51;;;;;;;0.20;0.20;;;16.50;99.90;;;;;;5074694;28;20041;-81
2022/08/30 07:11:28;;;;;;;0.20;0.20;;;16.60;99.90;;;;;;5079511;28;20044;-82
2022/08/30 07:13:56;;;;;;;0.30;0.30;;;16.80;99.90;;;;;;5085060;28;20043;-81
2022/08/30 07:16:22;;;;;;;0.30;0.30;;;16.90;99.90;;;;;;5089601;28;20555;-79
2022/08/30 07:18:53;;;;;;;0.30;0.30;;;16.90;99.90;;;;;;5082285;28;20071;-81
2022/08/30 07:21:35;;;;;;;0.30;0.30;;;17.00;99.90;;;;;;5083208;28;20244;-81
2022/08/30 07:24:02;;;;;;;0.30;0.30;;;17.20;99.90;;;;;;5079680;28;20040;-80
2022/08/30 07:26:32;;;;;;;0.32;0.32;;;17.20;99.90;;;;;;5086520;28;20036;-80
2022/08/30 07:28:59;;;;;;;0.22;0.22;;;17.30;99.90;;;;;;5085136;28;20049;-82
2022/08/30 07:31:25;;;;;;;0.40;0.40;;;17.30;99.90;;;;;;5083685;28;20436;-81
2022/08/30 07:33:51;;;;;;;;;;;17.40;99.90;;;;;;5082224;28;20036;-80
2022/08/30 07:36:17;;;;;;;0.20;0.20;;;17.40;99.90;;;;;;5085472;28;20258;-81
2022/08/30 07:38:47;;;;;;;;;;;17.60;99.90;;;;;;5083032;28;20075;-81
2022/08/30 07:41:31;;;;;;;0.50;0.40;;;17.70;99.90;;;;;;5094894;28;19919;-81
2022/08/30 07:43:57;;;;;;;0.28;0.28;;;17.70;99.90;;;;;;5079470;28;20094;-80
2022/08/30 07:46:24;;;;;;;0.30;0.30;;;17.80;99.90;;;;;;5071537;28;20044;-80
2022/08/30 07:48:50;;;;;;;0.90;0.30;;;17.90;99.90;;;;;;5071230;28;20036;-79
2022/08/30 07:51:18;;;;;;;;;;;17.90;99.90;;;;;;5088505;28;20043;-79
2022/08/30 07:53:50;;;;;;;0.20;0.20;;;18.00;99.90;;;;;;5073949;28;20290;-80
2022/08/30 07:56:15;;;;;;;;;;;18.10;99.90;;;;;;5066899;28;20037;-79
2022/08/30 07:58:41;;;;;;;1.13;0.75;;;18.10;99.90;;;;;;5065180;28;19995;-78
2022/08/30 08:01:13;;;;;;;0.20;0.20;;;18.20;99.90;;;;;;5053423;28;20109;-80
2022/08/30 08:03:41;;;;;;;0.35;0.35;;;18.30;99.90;;;;;;5062844;28;20043;-80
2022/08/30 08:06:10;;;;;;;0.30;0.30;;;18.40;99.90;;;;;;5067187;28;20413;-78
2022/08/30 08:08:38;;;;;;;0.25;0.25;;;18.40;99.90;;;;;;5067377;28;20044;-83
2022/08/30 08:11:09;;;;;;;0.65;0.65;;;18.50;99.90;;;;;;5085271;28;20052;-75
2022/08/30 08:13:35;;;;;;;0.22;0.22;;;18.60;99.90;;;;;;5069651;28;20436;-75
2022/08/30 08:16:01;;;;;;;0.30;0.30;;;18.70;99.90;;;;;;5066031;28;20485;-78
2022/08/30 08:18:28;;;;;;;;;;;18.80;99.90;;;;;;5081393;28;20086;-79
2022/08/30 08:20:54;;;;;;;0.25;0.25;;;18.90;99.90;;;;;;5077900;28;20259;-78
2022/08/30 08:23:20;;;;;;;;;;;19.00;99.90;;;;;;5077705;28;20106;-80
2022/08/30 08:25:46;;;;;;;0.40;0.40;;;19.00;99.90;;;;;;5083719;28;20404;-77
2022/08/30 08:28:11;;;;;;;;;;;19.10;99.90;;;;;;5070056;28;20032;-78
2022/08/30 08:30:38;;;;;;;0.20;0.20;;;19.20;99.90;;;;;;5096956;28;19930;-77
2022/08/30 08:33:05;;;;;;;0.30;0.30;;;19.30;99.90;;;;;;5089030;28;20084;-77
2022/08/30 08:35:31;;;;;;;0.20;0.20;;;19.30;99.90;;;;;;5077542;28;20044;-79
2022/08/30 08:37:58;;;;;;;0.20;0.20;;;19.50;99.90;;;;;;5092312;28;20071;-77
2022/08/30 08:40:24;;;;;;;0.30;0.30;;;19.50;99.90;;;;;;5080015;28;20135;-81
2022/08/30 08:43:01;;;;;;;0.20;0.20;;;19.30;99.90;;;;;;5068765;28;20117;-80
2022/08/30 08:45:39;;;;;;;0.38;0.38;;;19.30;99.90;;;;;;5084693;28;20052;-78
2022/08/30 08:48:18;;;;;;;0.45;0.45;;;19.30;99.90;;;;;;5084563;28;20098;-77
2022/08/30 08:53:35;;;;;;;0.40;0.40;;;19.50;99.90;;;;;;5084703;28;20040;-76
2022/08/30 08:56:14;;;;;;;0.30;0.30;;;19.70;99.90;;;;;;5066473;28;20052;-77
2022/08/30 08:58:46;;;;;;;0.38;0.38;;;19.80;99.90;;;;;;5082587;28;20376;-77
2022/08/30 09:01:14;;;;;;;0.45;0.45;;;20.00;99.90;;;;;;5081748;28;20520;-78
2022/08/30 09:03:41;;;;;;;0.30;0.30;;;19.80;99.90;;;;;;5083035;28;20048;-77
2022/08/30 09:06:33;;;;;;;0.55;0.55;;;19.70;99.90;;;;;;5086728;28;20040;-78
2022/08/30 09:08:58;;;;;;;0.68;0.68;;;19.60;99.90;;;;;;5068089;28;20121;-79
2022/08/30 09:11:26;;;;;;;0.30;0.30;;;19.70;99.90;;;;;;5056628;28;20502;-76
2022/08/30 09:13:56;;;;;;;0.20;0.20;;;19.90;99.90;;;;;;5080516;28;20515;-79
2022/08/30 09:16:43;;;;;;;0.40;0.40;;;20.10;99.90;;;;;;5080612;28;20051;-77
2022/08/30 09:19:09;;;;;;;0.57;0.57;;;20.20;99.90;;;;;;5081237;28;20048;-78
2022/08/30 09:21:35;;;;;;;0.30;0.30;;;20.10;99.90;;;;;;5082817;28;20554;-78
2022/08/30 09:24:06;;;;;;;0.20;0.20;;;20.00;99.90;;;;;;5077399;28;20433;-78
2022/08/30 09:26:34;;;;;;;0.13;0.13;;;20.00;99.90;;;;;;5082172;28;20063;-78
2022/08/30 09:29:00;;;;;;;0.20;0.20;;;20.00;99.90;;;;;;5078864;28;20393;-79
2022/08/30 09:31:32;;;;;;;0.82;0.40;;;20.00;99.90;;;;;;5077460;28;20045;-78
2022/08/30 09:34:04;;;;;;;0.20;0.20;;;19.90;99.90;;;;;;5085263;28;20048;-78
2022/08/30 09:36:48;;;;;;;0.30;0.30;;;19.70;99.90;;;;;;5081569;28;20035;-78
2022/08/30 09:39:17;;;;;;;0.20;0.20;;;19.50;99.90;;;;;;5098578;28;20055;-78
2022/08/30 09:41:48;;;;;;;0.30;0.30;;;19.30;99.90;;;;;;5073265;28;20071;-78
2022/08/30 09:44:21;;;;;;;0.30;0.30;;;19.30;99.90;;;;;;5083853;28;20374;-78
2022/08/30 09:46:57;;;;;;;0.30;0.30;;;19.40;99.90;;;;;;5070614;28;20052;-78
2022/08/30 09:49:42;;;;;;;0.20;0.20;;;19.50;99.90;;;;;;5081207;28;20044;-78
2022/08/30 09:52:29;;;;;;;0.20;0.20;;;19.70;99.90;;;;;;5079606;28;20549;-78
2022/08/30 09:55:22;;;;;;;0.20;0.20;;;19.90;99.90;;;;;;5082170;28;20079;-80
2022/08/30 09:58:02;;;;;;;0.20;0.20;;;20.20;99.90;;;;;;5075794;28;20045;-79
2022/08/30 10:00:35;;;;;;;0.20;0.20;;;20.40;99.90;;;;;;5081781;28;20385;-79
2022/08/30 10:03:24;;;;;;;0.20;0.20;;;20.40;99.90;;;;;;5080443;28;20101;-80
2022/08/30 10:06:28;;;;;;;0.20;0.20;;;20.70;99.90;;;;;;5073454;28;20044;-77
2022/08/30 10:09:13;;;;;;;0.20;0.20;;;;;;;;;;5071296;28;20102;-78
2022/08/30 10:11:45;;;;;;;0.30;0.30;;;;;;;;;;5083671;28;20513;-78
2022/08/30 10:14:21;;;;;;;0.30;0.30;;;;;;;;;;5077940;28;20094;-76
2022/08/30 10:16:47;;;;;;;;;;;;;;;;;;5068761;28;20071;-77
2022/08/30 10:19:16;;;;;;;0.38;0.38;;;;;;;;;;5099332;28;20016;-77
2022/08/30 10:21:54;;;;;;;0.20;0.20;;;;;;;;;;5084668;28;20408;-78
2022/08/30 10:24:23;;;;;;;0.30;0.30;;;;;;;;;;5063837;28;20856;-79
2022/08/30 10:26:54;;;;;;;0.40;0.40;;;;;;;;;;5086953;28;20040;-78
2022/08/30 10:29:25;;;;;;;0.32;0.32;;;;;;;;;;5099611;28;20138;-76
2022/08/30 10:31:51;;;;;;;0.20;0.20;;;;;;;;;;5089794;28;20048;-78
2022/08/30 10:34:24;;;;;;;0.28;0.28;;;;;;;;;;5086661;28;20162;-77
2022/08/30 10:36:56;;;;;;;0.20;0.20;;;;;;;;;;5074899;28;20037;-79
2022/08/30 10:39:24;;;;;;;0.57;0.22;;;;;;;;;;5091177;28;20630;-78
2022/08/30 10:41:58;;;;;;;0.30;0.30;;;;;;;;;;5091566;28;20541;-78
2022/08/30 10:44:29;;;;;;;0.20;0.20;;;;;;;;;;5092088;28;20051;-77
2022/08/30 10:47:00;;;;;;;0.20;0.20;;;;;;;;;;5087759;28;20052;-79
2022/08/30 10:49:28;;;;;;;0.30;0.30;;;;;;;;;;5070160;28;20068;-77
2022/08/30 10:52:13;;;;;;;0.30;0.30;;;;;;;;;;5078798;28;20386;-77
2022/08/30 10:54:49;;;;;;;0.20;0.20;;;;;;;;;;5092883;28;20105;-76
2022/08/30 10:57:16;;;;;;;0.25;0.25;;;;;;;;;;5064454;28;20040;-78
2022/08/30 10:59:44;;;;;;;0.20;0.20;;;;;;;;;;5090405;28;20047;-77
2022/08/30 11:02:29;;;;;;;0.20;0.20;;;;;;;;;;5085330;28;20119;-78
2022/08/30 11:04:58;;;;;;;0.30;0.30;;;;;;;;;;5090359;28;20519;-78
2022/08/30 11:07:43;;;;;;;0.20;0.20;;;;;;;;;;5082617;28;20619;-79
2022/08/30 11:10:26;;;;;;;0.30;0.30;;;;;;;;;;5086208;28;20040;-77
2022/08/30 11:13:03;;;;;;;0.30;0.30;;;;;;;;;;5079832;28;20539;-77
2022/08/30 11:15:51;;;;;;;0.22;0.22;;;;;;;;;;5085824;28;20043;-76
2022/08/30 11:18:20;;;;;;;0.20;0.20;;;;;;;;;;5084851;28;20062;-77
2022/08/30 11:20:53;;;;;;;0.20;0.20;;;;;;;;;;5084127;28;20106;-77
2022/08/30 11:23:25;;;;;;;0.22;0.22;;;;;;;;;;5080317;28;20093;-78
2022/08/30 11:26:03;;;;;;;0.38;0.38;;;;;;;;;;5082109;28;20047;-77
2022/08/30 11:28:35;;;;;;;0.20;0.20;;;;;;;;;;5085556;28;20051;-77
2022/08/30 11:31:06;;;;;;;0.35;0.35;;;;;;;;;;5083736;28;20139;-77
2022/08/30 11:33:50;;;;;;;0.20;0.20;;;;;;;;;;5088222;28;20056;-78
2022/08/30 11:36:25;;;;;;;0.30;0.30;;;;;;;;;;5075522;28;20071;-78
2022/08/30 11:38:51;;;;;;;0.20;0.20;;;;;;;;;;5071968;28;20040;-78
2022/08/30 11:41:37;;;;;;;0.20;0.20;;;;;;;;;;5080961;28;20067;-77
2022/08/30 11:44:14;;;;;;;0.20;0.20;;;;;;;;;;5064779;28;20127;-77
2022/08/30 11:46:42;;;;;;;0.40;0.40;;;;;;;;;;5079948;28;20121;-78
2022/08/30 11:49:13;;;;;;;0.30;0.30;;;;;;;;;;5084048;28;20055;-77
2022/08/30 11:51:42;;;;;;;0.40;0.40;;;;;;;;;;5088053;28;20043;-78
2022/08/30 11:54:27;;;;;;;0.50;0.50;;;;;;;;;;5084810;28;20620;-77
2022/08/30 11:56:57;;;;;;;0.30;0.30;;;;;;;;;;5087503;28;20445;-77
2022/08/30 11:59:23;;;;;;;0.30;0.30;;;;;;;;;;5084964;28;20036;-77
2022/08/30 12:01:49;;;;;;;0.20;0.20;;;;;;;;;;5077810;28;20432;-78
2022/08/30 12:04:18;;;;;;;0.20;0.20;;;;;;;;;;5083395;28;20336;-78
2022/08/30 12:06:55;;;;;;;0.10;0.10;;;;;;;;;;5082379;28;20044;-76
2022/08/30 12:09:25;;;;;;;0.88;0.40;;;;;;;;;;5090087;28;20047;-77
2022/08/30 12:12:02;;;;;;;0.30;0.30;;;;;;;;;;5079767;28;20056;-76
2022/08/30 12:14:40;;;;;;;0.20;0.20;;;;;;;;;;5088038;28;20052;-77
2022/08/30 12:19:58;;;;;;;0.40;0.40;;;;;;;;;;5099718;28;20047;-77
2022/08/30 12:22:25;;;;;;;0.43;0.43;;;;;;;;;;5087596;28;20048;-77
2022/08/30 12:24:52;;;;;;;0.20;0.20;;;;;;;;;;5076091;28;20094;-77
2022/08/30 12:27:24;;;;;;;0.20;0.20;;;;;;;;;;5073704;28;20557;-78
2022/08/30 12:30:00;;;;;;;0.52;0.52;;;;;;;;;;5065377;28;20083;-76
2022/08/30 12:32:26;;;;;;;0.20;0.20;;;;;;;;;;5059035;28;20135;-77
2022/08/30 12:35:02;;;;;;;0.10;0.10;;;;;;;;;;5081426;28;20052;-77
2022/08/30 12:37:33;;;;;;;0.32;0.32;;;;;;;;;;5068788;28;20044;-77
2022/08/30 12:40:00;;;;;;;0.50;0.50;;;;;;;;;;5082452;28;20052;-76
2022/08/30 12:42:30;;;;;;;0.40;0.40;;;;;;;;;;5079450;28;20637;-76
2022/08/30 12:45:03;;;;;;;0.30;0.30;;;;;;;;;;5082888;28;20545;-76
2022/08/30 12:47:32;;;;;;;0.20;0.20;;;;;;;;;;5085559;28;20188;-77
2022/08/30 12:49:59;;;;;;;0.47;0.47;;;;;;;;;;5082455;28;20044;-77
2022/08/30 12:52:25;;;;;;;0.20;0.20;;;;;;;;;;5061281;28;20048;-76
2022/08/30 12:54:52;;;;;;;0.20;0.20;;;;;;;;;;5085379;28;20039;-76
2022/08/30 12:57:39;;;;;;;0.25;0.25;;;;;;;;;;5059268;28;20036;-76
2022/08/30 13:00:07;;;;;;;0.20;0.20;;;;;;;;;;5062359;28;20048;-78
2022/08/30 13:02:44;;;;;;;0.20;0.20;;;;;;;;;;5081272;28;20079;-77
2022/08/30 13:05:46;;;;;;;0.28;0.28;;;;;;;;;;5085041;28;20053;-77
2022/08/30 13:08:14;;;;;;;0.30;0.30;;;;;;;;;;5028472;28;20037;-78
2022/08/30 13:10:51;;;;;;;0.43;0.43;;;;;;;;;;5070841;28;20283;-77
2022/08/30 13:13:28;;;;;;;0.20;0.20;;;;;;;;;;5084235;28;20040;-76
2022/08/30 13:15:54;;;;;;;0.20;0.20;;;;;;;;;;5075594;28;20066;-77
2022/08/30 13:18:30;;;;;;;0.30;0.30;;;;;;;;;;5065745;28;20045;-77
2022/08/30 13:21:20;;;;;;;0.20;0.20;;;;;;;;;;5071691;28;20040;-77
2022/08/30 13:23:46;;;;;;;0.20;0.20;;;;;;;;;;5084115;28;20378;-77
2022/08/30 13:26:12;;;;;;;0.25;0.25;;;;;;;;;;5084547;28;20738;-76
2022/08/30 13:28:56;;;;;;;0.20;0.20;;;;;;;;;;5068946;28;20381;-78
2022/08/30 13:31:23;;;;;;;0.20;0.20;;;;;;;;;;5084813;28;20147;-77
2022/08/30 13:33:51;;;;;;;0.13;0.13;;;;;;;;;;5079163;28;20556;-77
2022/08/30 13:36:20;;;;;;;0.20;0.20;;;;;;;;;;5077844;28;20389;-77